sensor_id;sensor_type;location;lat;lon;timestamp;P1;durP1;ratioP1;P2;durP2;ratioP2
67274;SDS011;55463;52.324;5.122;2023-04-16T00:02:27;11.18;;;2.90;;
67274;SDS011;55463;52.324;5.122;2023-04-16T00:04:53;13.18;;;2.67;;
67274;SDS011;55463;52.324;5.122;2023-04-16T00:07:18;12.73;;;3.30;;
67274;SDS011;55463;52.324;5.122;2023-04-16T00:09:43;7.68;;;2.72;;
67274;SDS011;55463;52.324;5.122;2023-04-16T00:12:10;9.70;;;2.72;;
67274;SDS011;55463;52.324;5.122;2023-04-16T00:14:35;12.05;;;2.70;;
67274;SDS011;55463;52.324;5.122;2023-04-16T00:17:01;7.38;;;2.90;;
67274;SDS011;55463;52.324;5.122;2023-04-16T00:19:26;10.75;;;2.90;;
67274;SDS011;55463;52.324;5.122;2023-04-16T00:21:52;10.43;;;3.10;;
67274;SDS011;55463;52.324;5.122;2023-04-16T00:24:17;8.63;;;2.90;;
67274;SDS011;55463;52.324;5.122;2023-04-16T00:26:42;6.60;;;2.80;;
67274;SDS011;55463;52.324;5.122;2023-04-16T00:29:10;9.95;;;2.90;;
67274;SDS011;55463;52.324;5.122;2023-04-16T00:31:35;8.35;;;3.15;;
67274;SDS011;55463;52.324;5.122;2023-04-16T00:34:01;15.13;;;3.58;;
67274;SDS011;55463;52.324;5.122;2023-04-16T00:36:26;9.63;;;3.20;;
67274;SDS011;55463;52.324;5.122;2023-04-16T00:38:52;11.25;;;3.85;;
67274;SDS011;55463;52.324;5.122;2023-04-16T00:41:18;5.38;;;3.20;;
67274;SDS011;55463;52.324;5.122;2023-04-16T00:43:44;5.03;;;3.33;;
67274;SDS011;55463;52.324;5.122;2023-04-16T00:46:09;14.52;;;3.80;;
67274;SDS011;55463;52.324;5.122;2023-04-16T00:48:37;12.75;;;3.63;;
67274;SDS011;55463;52.324;5.122;2023-04-16T00:51:04;14.05;;;3.35;;
67274;SDS011;55463;52.324;5.122;2023-04-16T00:53:30;11.43;;;2.90;;
67274;SDS011;55463;52.324;5.122;2023-04-16T00:55:55;10.57;;;3.08;;
67274;SDS011;55463;52.324;5.122;2023-04-16T00:58:21;7.43;;;2.88;;
67274;SDS011;55463;52.324;5.122;2023-04-16T01:00:47;10.23;;;2.90;;
67274;SDS011;55463;52.324;5.122;2023-04-16T01:03:12;11.05;;;3.90;;
67274;SDS011;55463;52.324;5.122;2023-04-16T01:05:38;13.27;;;3.35;;
67274;SDS011;55463;52.324;5.122;2023-04-16T01:08:03;12.40;;;4.40;;
67274;SDS011;55463;52.324;5.122;2023-04-16T01:10:29;10.18;;;3.28;;
67274;SDS011;55463;52.324;5.122;2023-04-16T01:12:54;9.73;;;3.53;;
67274;SDS011;55463;52.324;5.122;2023-04-16T01:15:20;7.75;;;3.30;;
67274;SDS011;55463;52.324;5.122;2023-04-16T01:17:45;8.68;;;3.28;;
67274;SDS011;55463;52.324;5.122;2023-04-16T01:20:11;6.95;;;3.15;;
67274;SDS011;55463;52.324;5.122;2023-04-16T01:22:36;7.15;;;2.88;;
67274;SDS011;55463;52.324;5.122;2023-04-16T01:25:01;5.82;;;2.90;;
67274;SDS011;55463;52.324;5.122;2023-04-16T01:27:27;5.80;;;2.72;;
67274;SDS011;55463;52.324;5.122;2023-04-16T01:29:52;8.40;;;2.58;;
67274;SDS011;55463;52.324;5.122;2023-04-16T01:32:18;8.63;;;2.95;;
67274;SDS011;55463;52.324;5.122;2023-04-16T01:34:43;9.30;;;2.83;;
67274;SDS011;55463;52.324;5.122;2023-04-16T01:37:09;7.00;;;2.90;;
67274;SDS011;55463;52.324;5.122;2023-04-16T01:39:34;8.40;;;3.47;;
67274;SDS011;55463;52.324;5.122;2023-04-16T01:42:00;7.75;;;3.17;;
67274;SDS011;55463;52.324;5.122;2023-04-16T01:44:26;6.43;;;2.88;;
67274;SDS011;55463;52.324;5.122;2023-04-16T01:46:51;12.43;;;3.08;;
67274;SDS011;55463;52.324;5.122;2023-04-16T01:49:17;8.60;;;2.60;;
67274;SDS011;55463;52.324;5.122;2023-04-16T01:51:42;11.45;;;3.30;;
67274;SDS011;55463;52.324;5.122;2023-04-16T01:54:08;14.02;;;4.03;;
67274;SDS011;55463;52.324;5.122;2023-04-16T01:56:33;10.27;;;3.22;;
67274;SDS011;55463;52.324;5.122;2023-04-16T01:58:58;9.57;;;3.20;;
67274;SDS011;55463;52.324;5.122;2023-04-16T02:01:24;10.30;;;3.17;;
67274;SDS011;55463;52.324;5.122;2023-04-16T02:03:53;10.57;;;3.33;;
67274;SDS011;55463;52.324;5.122;2023-04-16T02:06:18;7.90;;;2.80;;
67274;SDS011;55463;52.324;5.122;2023-04-16T02:08:43;5.82;;;2.97;;
67274;SDS011;55463;52.324;5.122;2023-04-16T02:11:09;9.02;;;3.20;;
67274;SDS011;55463;52.324;5.122;2023-04-16T02:13:34;11.48;;;3.70;;
67274;SDS011;55463;52.324;5.122;2023-04-16T02:16:00;9.10;;;3.80;;
67274;SDS011;55463;52.324;5.122;2023-04-16T02:18:26;7.60;;;3.28;;
67274;SDS011;55463;52.324;5.122;2023-04-16T02:20:52;9.23;;;3.90;;
67274;SDS011;55463;52.324;5.122;2023-04-16T02:23:17;14.63;;;4.50;;
67274;SDS011;55463;52.324;5.122;2023-04-16T02:25:43;11.75;;;4.30;;
67274;SDS011;55463;52.324;5.122;2023-04-16T02:28:11;10.70;;;3.90;;
67274;SDS011;55463;52.324;5.122;2023-04-16T02:30:38;16.60;;;4.40;;
67274;SDS011;55463;52.324;5.122;2023-04-16T02:33:04;9.55;;;4.30;;
67274;SDS011;55463;52.324;5.122;2023-04-16T02:35:31;12.13;;;4.50;;
67274;SDS011;55463;52.324;5.122;2023-04-16T02:38:00;8.60;;;4.30;;
67274;SDS011;55463;52.324;5.122;2023-04-16T02:40:26;13.27;;;4.03;;
67274;SDS011;55463;52.324;5.122;2023-04-16T02:42:52;17.48;;;4.90;;
67274;SDS011;55463;52.324;5.122;2023-04-16T02:45:18;12.02;;;4.90;;
67274;SDS011;55463;52.324;5.122;2023-04-16T02:47:44;15.80;;;4.93;;
67274;SDS011;55463;52.324;5.122;2023-04-16T02:50:10;13.23;;;5.63;;
67274;SDS011;55463;52.324;5.122;2023-04-16T02:52:35;16.35;;;5.20;;
67274;SDS011;55463;52.324;5.122;2023-04-16T02:55:00;9.68;;;4.55;;
67274;SDS011;55463;52.324;5.122;2023-04-16T02:57:26;14.43;;;4.38;;
67274;SDS011;55463;52.324;5.122;2023-04-16T02:59:51;14.30;;;5.07;;
67274;SDS011;55463;52.324;5.122;2023-04-16T03:02:17;14.45;;;5.03;;
67274;SDS011;55463;52.324;5.122;2023-04-16T03:04:42;14.23;;;4.82;;
67274;SDS011;55463;52.324;5.122;2023-04-16T03:07:07;16.02;;;5.97;;
67274;SDS011;55463;52.324;5.122;2023-04-16T03:09:33;19.90;;;6.75;;
67274;SDS011;55463;52.324;5.122;2023-04-16T03:11:59;21.20;;;6.30;;
67274;SDS011;55463;52.324;5.122;2023-04-16T03:14:26;13.75;;;6.10;;
67274;SDS011;55463;52.324;5.122;2023-04-16T03:16:51;16.02;;;5.82;;
67274;SDS011;55463;52.324;5.122;2023-04-16T03:19:17;22.98;;;6.75;;
67274;SDS011;55463;52.324;5.122;2023-04-16T03:21:42;22.15;;;6.65;;
67274;SDS011;55463;52.324;5.122;2023-04-16T03:24:07;20.48;;;7.78;;
67274;SDS011;55463;52.324;5.122;2023-04-16T03:26:33;20.50;;;7.40;;
67274;SDS011;55463;52.324;5.122;2023-04-16T03:28:58;26.48;;;7.57;;
67274;SDS011;55463;52.324;5.122;2023-04-16T03:31:24;20.17;;;7.43;;
67274;SDS011;55463;52.324;5.122;2023-04-16T03:33:50;17.10;;;7.65;;
67274;SDS011;55463;52.324;5.122;2023-04-16T03:36:15;19.00;;;7.03;;
67274;SDS011;55463;52.324;5.122;2023-04-16T03:38:41;17.15;;;7.15;;
67274;SDS011;55463;52.324;5.122;2023-04-16T03:41:06;17.92;;;6.70;;
67274;SDS011;55463;52.324;5.122;2023-04-16T03:43:31;23.13;;;7.30;;
67274;SDS011;55463;52.324;5.122;2023-04-16T03:45:57;19.75;;;7.45;;
67274;SDS011;55463;52.324;5.122;2023-04-16T03:48:22;23.95;;;8.40;;
67274;SDS011;55463;52.324;5.122;2023-04-16T03:50:47;38.15;;;8.55;;
67274;SDS011;55463;52.324;5.122;2023-04-16T03:53:13;25.08;;;8.48;;
67274;SDS011;55463;52.324;5.122;2023-04-16T03:55:39;34.97;;;9.60;;
67274;SDS011;55463;52.324;5.122;2023-04-16T03:58:05;34.40;;;9.82;;
67274;SDS011;55463;52.324;5.122;2023-04-16T04:00:30;23.33;;;9.35;;
67274;SDS011;55463;52.324;5.122;2023-04-16T04:02:56;33.03;;;10.68;;
67274;SDS011;55463;52.324;5.122;2023-04-16T04:05:21;35.35;;;10.32;;
67274;SDS011;55463;52.324;5.122;2023-04-16T04:07:47;38.42;;;12.35;;
67274;SDS011;55463;52.324;5.122;2023-04-16T04:10:12;38.33;;;10.57;;
67274;SDS011;55463;52.324;5.122;2023-04-16T04:12:38;36.03;;;11.20;;
67274;SDS011;55463;52.324;5.122;2023-04-16T04:15:03;32.55;;;11.63;;
67274;SDS011;55463;52.324;5.122;2023-04-16T04:17:29;36.72;;;11.95;;
67274;SDS011;55463;52.324;5.122;2023-04-16T04:19:54;45.63;;;13.13;;
67274;SDS011;55463;52.324;5.122;2023-04-16T04:22:20;39.22;;;12.60;;
67274;SDS011;55463;52.324;5.122;2023-04-16T04:24:45;41.42;;;13.93;;
67274;SDS011;55463;52.324;5.122;2023-04-16T04:27:10;43.85;;;12.93;;
67274;SDS011;55463;52.324;5.122;2023-04-16T04:29:36;36.33;;;13.88;;
67274;SDS011;55463;52.324;5.122;2023-04-16T04:32:01;42.08;;;14.40;;
67274;SDS011;55463;52.324;5.122;2023-04-16T04:34:27;40.67;;;12.95;;
67274;SDS011;55463;52.324;5.122;2023-04-16T04:36:52;52.45;;;14.60;;
67274;SDS011;55463;52.324;5.122;2023-04-16T04:39:17;37.70;;;13.73;;
67274;SDS011;55463;52.324;5.122;2023-04-16T04:41:45;41.42;;;14.90;;
67274;SDS011;55463;52.324;5.122;2023-04-16T04:44:11;40.97;;;12.43;;
67274;SDS011;55463;52.324;5.122;2023-04-16T04:46:36;35.83;;;12.60;;
67274;SDS011;55463;52.324;5.122;2023-04-16T04:49:02;46.08;;;13.45;;
67274;SDS011;55463;52.324;5.122;2023-04-16T04:51:27;40.33;;;12.23;;
67274;SDS011;55463;52.324;5.122;2023-04-16T04:53:52;39.22;;;12.85;;
67274;SDS011;55463;52.324;5.122;2023-04-16T04:56:18;41.53;;;13.75;;
67274;SDS011;55463;52.324;5.122;2023-04-16T04:58:43;36.67;;;14.15;;
67274;SDS011;55463;52.324;5.122;2023-04-16T05:01:08;38.42;;;12.68;;
67274;SDS011;55463;52.324;5.122;2023-04-16T05:03:34;46.65;;;13.77;;
67274;SDS011;55463;52.324;5.122;2023-04-16T05:06:00;40.33;;;12.77;;
67274;SDS011;55463;52.324;5.122;2023-04-16T05:08:25;30.55;;;11.52;;
67274;SDS011;55463;52.324;5.122;2023-04-16T05:10:51;40.80;;;11.88;;
67274;SDS011;55463;52.324;5.122;2023-04-16T05:13:16;41.47;;;13.25;;
67274;SDS011;55463;52.324;5.122;2023-04-16T05:15:41;34.55;;;13.23;;
67274;SDS011;55463;52.324;5.122;2023-04-16T05:18:07;33.78;;;12.25;;
67274;SDS011;55463;52.324;5.122;2023-04-16T05:20:32;30.20;;;11.52;;
67274;SDS011;55463;52.324;5.122;2023-04-16T05:22:58;32.58;;;13.10;;
67274;SDS011;55463;52.324;5.122;2023-04-16T05:25:23;37.47;;;11.80;;
67274;SDS011;55463;52.324;5.122;2023-04-16T05:27:48;27.65;;;10.75;;
67274;SDS011;55463;52.324;5.122;2023-04-16T05:30:14;32.40;;;9.90;;
67274;SDS011;55463;52.324;5.122;2023-04-16T05:32:39;32.78;;;11.27;;
67274;SDS011;55463;52.324;5.122;2023-04-16T05:35:05;39.17;;;11.93;;
67274;SDS011;55463;52.324;5.122;2023-04-16T05:37:30;25.52;;;10.68;;
67274;SDS011;55463;52.324;5.122;2023-04-16T05:39:56;28.58;;;10.38;;
67274;SDS011;55463;52.324;5.122;2023-04-16T05:42:21;22.80;;;10.07;;
67274;SDS011;55463;52.324;5.122;2023-04-16T05:44:46;28.52;;;9.68;;
67274;SDS011;55463;52.324;5.122;2023-04-16T05:47:12;26.30;;;10.23;;
67274;SDS011;55463;52.324;5.122;2023-04-16T05:49:37;33.00;;;10.50;;
67274;SDS011;55463;52.324;5.122;2023-04-16T05:52:03;26.15;;;9.65;;
67274;SDS011;55463;52.324;5.122;2023-04-16T05:54:29;24.75;;;9.88;;
67274;SDS011;55463;52.324;5.122;2023-04-16T05:56:54;23.33;;;10.30;;
67274;SDS011;55463;52.324;5.122;2023-04-16T05:59:20;30.00;;;9.90;;
67274;SDS011;55463;52.324;5.122;2023-04-16T06:01:45;29.05;;;10.07;;
67274;SDS011;55463;52.324;5.122;2023-04-16T06:04:11;21.70;;;11.02;;
67274;SDS011;55463;52.324;5.122;2023-04-16T06:06:36;21.33;;;9.93;;
67274;SDS011;55463;52.324;5.122;2023-04-16T06:09:02;28.55;;;10.85;;
67274;SDS011;55463;52.324;5.122;2023-04-16T06:11:31;22.33;;;8.88;;
67274;SDS011;55463;52.324;5.122;2023-04-16T06:13:56;20.98;;;9.20;;
67274;SDS011;55463;52.324;5.122;2023-04-16T06:16:22;20.23;;;8.55;;
67274;SDS011;55463;52.324;5.122;2023-04-16T06:18:47;22.08;;;8.88;;
67274;SDS011;55463;52.324;5.122;2023-04-16T06:21:12;20.80;;;9.38;;
67274;SDS011;55463;52.324;5.122;2023-04-16T06:23:38;17.50;;;8.45;;
67274;SDS011;55463;52.324;5.122;2023-04-16T06:26:03;20.83;;;9.85;;
67274;SDS011;55463;52.324;5.122;2023-04-16T06:28:29;22.35;;;9.38;;
67274;SDS011;55463;52.324;5.122;2023-04-16T06:30:55;18.77;;;9.80;;
67274;SDS011;55463;52.324;5.122;2023-04-16T06:33:20;24.58;;;10.18;;
67274;SDS011;55463;52.324;5.122;2023-04-16T06:35:46;26.77;;;9.93;;
67274;SDS011;55463;52.324;5.122;2023-04-16T06:38:11;26.15;;;9.73;;
67274;SDS011;55463;52.324;5.122;2023-04-16T06:40:36;20.10;;;8.88;;
67274;SDS011;55463;52.324;5.122;2023-04-16T06:43:02;24.92;;;10.43;;
67274;SDS011;55463;52.324;5.122;2023-04-16T06:45:27;14.30;;;8.85;;
67274;SDS011;55463;52.324;5.122;2023-04-16T06:47:52;26.45;;;10.52;;
67274;SDS011;55463;52.324;5.122;2023-04-16T06:50:18;21.50;;;10.07;;
67274;SDS011;55463;52.324;5.122;2023-04-16T06:52:43;24.40;;;10.57;;
67274;SDS011;55463;52.324;5.122;2023-04-16T06:55:09;17.70;;;9.38;;
67274;SDS011;55463;52.324;5.122;2023-04-16T06:57:35;19.50;;;10.10;;
67274;SDS011;55463;52.324;5.122;2023-04-16T07:00:01;18.60;;;10.55;;
67274;SDS011;55463;52.324;5.122;2023-04-16T07:02:29;17.83;;;9.48;;
67274;SDS011;55463;52.324;5.122;2023-04-16T07:04:54;15.45;;;8.38;;
67274;SDS011;55463;52.324;5.122;2023-04-16T07:07:20;22.48;;;9.43;;
67274;SDS011;55463;52.324;5.122;2023-04-16T07:09:45;16.58;;;8.85;;
67274;SDS011;55463;52.324;5.122;2023-04-16T07:12:10;15.13;;;8.25;;
67274;SDS011;55463;52.324;5.122;2023-04-16T07:14:36;19.42;;;8.65;;
67274;SDS011;55463;52.324;5.122;2023-04-16T07:17:01;12.80;;;8.02;;
67274;SDS011;55463;52.324;5.122;2023-04-16T07:19:27;16.67;;;8.70;;
67274;SDS011;55463;52.324;5.122;2023-04-16T07:21:56;21.10;;;8.02;;
67274;SDS011;55463;52.324;5.122;2023-04-16T07:24:21;19.63;;;7.72;;
67274;SDS011;55463;52.324;5.122;2023-04-16T07:26:47;14.68;;;8.23;;
67274;SDS011;55463;52.324;5.122;2023-04-16T07:29:12;14.07;;;8.35;;
67274;SDS011;55463;52.324;5.122;2023-04-16T07:31:37;18.77;;;8.50;;
67274;SDS011;55463;52.324;5.122;2023-04-16T07:34:03;15.63;;;7.68;;
67274;SDS011;55463;52.324;5.122;2023-04-16T07:36:28;13.60;;;8.15;;
67274;SDS011;55463;52.324;5.122;2023-04-16T07:38:54;20.05;;;8.35;;
67274;SDS011;55463;52.324;5.122;2023-04-16T07:41:20;18.38;;;7.43;;
67274;SDS011;55463;52.324;5.122;2023-04-16T07:43:45;17.38;;;8.50;;
67274;SDS011;55463;52.324;5.122;2023-04-16T07:46:11;18.45;;;8.10;;
67274;SDS011;55463;52.324;5.122;2023-04-16T07:48:36;20.30;;;7.55;;
67274;SDS011;55463;52.324;5.122;2023-04-16T07:51:01;12.32;;;6.78;;
67274;SDS011;55463;52.324;5.122;2023-04-16T07:53:27;11.75;;;6.90;;
67274;SDS011;55463;52.324;5.122;2023-04-16T07:55:52;14.30;;;6.93;;
67274;SDS011;55463;52.324;5.122;2023-04-16T07:58:18;15.00;;;6.50;;
67274;SDS011;55463;52.324;5.122;2023-04-16T08:00:43;14.38;;;6.70;;
67274;SDS011;55463;52.324;5.122;2023-04-16T08:03:09;14.00;;;6.30;;
67274;SDS011;55463;52.324;5.122;2023-04-16T08:05:35;15.13;;;6.75;;
67274;SDS011;55463;52.324;5.122;2023-04-16T08:08:00;16.13;;;7.05;;
67274;SDS011;55463;52.324;5.122;2023-04-16T08:10:25;13.57;;;6.72;;
67274;SDS011;55463;52.324;5.122;2023-04-16T08:12:51;15.10;;;6.60;;
67274;SDS011;55463;52.324;5.122;2023-04-16T08:15:17;19.13;;;7.60;;
67274;SDS011;55463;52.324;5.122;2023-04-16T08:17:43;15.32;;;6.35;;
67274;SDS011;55463;52.324;5.122;2023-04-16T08:20:08;14.15;;;6.82;;
67274;SDS011;55463;52.324;5.122;2023-04-16T08:22:34;15.45;;;6.47;;
67274;SDS011;55463;52.324;5.122;2023-04-16T08:24:59;14.35;;;6.35;;
67274;SDS011;55463;52.324;5.122;2023-04-16T08:27:25;15.35;;;6.80;;
67274;SDS011;55463;52.324;5.122;2023-04-16T08:29:51;9.63;;;5.72;;
67274;SDS011;55463;52.324;5.122;2023-04-16T08:32:16;11.23;;;6.63;;
67274;SDS011;55463;52.324;5.122;2023-04-16T08:34:41;10.82;;;6.07;;
67274;SDS011;55463;52.324;5.122;2023-04-16T08:37:07;10.85;;;5.88;;
67274;SDS011;55463;52.324;5.122;2023-04-16T08:39:32;8.00;;;4.78;;
67274;SDS011;55463;52.324;5.122;2023-04-16T08:41:59;8.25;;;4.45;;
67274;SDS011;55463;52.324;5.122;2023-04-16T08:44:27;5.78;;;3.67;;
67274;SDS011;55463;52.324;5.122;2023-04-16T08:46:56;7.28;;;3.92;;
67274;SDS011;55463;52.324;5.122;2023-04-16T08:49:23;9.85;;;3.70;;
67274;SDS011;55463;52.324;5.122;2023-04-16T08:51:50;7.63;;;4.20;;
67274;SDS011;55463;52.324;5.122;2023-04-16T08:54:23;9.43;;;4.43;;
67274;SDS011;55463;52.324;5.122;2023-04-16T08:56:56;9.60;;;4.70;;
67274;SDS011;55463;52.324;5.122;2023-04-16T08:59:24;9.85;;;4.63;;
67274;SDS011;55463;52.324;5.122;2023-04-16T09:01:50;10.52;;;4.20;;
67274;SDS011;55463;52.324;5.122;2023-04-16T09:04:16;5.75;;;3.78;;
67274;SDS011;55463;52.324;5.122;2023-04-16T09:06:43;5.90;;;4.10;;
67274;SDS011;55463;52.324;5.122;2023-04-16T09:09:10;9.93;;;4.43;;
67274;SDS011;55463;52.324;5.122;2023-04-16T09:11:36;7.32;;;4.70;;
67274;SDS011;55463;52.324;5.122;2023-04-16T09:14:03;11.80;;;4.78;;
67274;SDS011;55463;52.324;5.122;2023-04-16T09:16:33;7.15;;;4.43;;
67274;SDS011;55463;52.324;5.122;2023-04-16T09:18:59;9.65;;;4.95;;
67274;SDS011;55463;52.324;5.122;2023-04-16T09:21:24;7.28;;;4.70;;
67274;SDS011;55463;52.324;5.122;2023-04-16T09:23:51;9.75;;;5.22;;
67274;SDS011;55463;52.324;5.122;2023-04-16T09:26:17;8.93;;;4.95;;
67274;SDS011;55463;52.324;5.122;2023-04-16T09:28:45;8.93;;;5.20;;
67274;SDS011;55463;52.324;5.122;2023-04-16T09:31:13;11.50;;;5.07;;
67274;SDS011;55463;52.324;5.122;2023-04-16T09:33:40;10.45;;;4.60;;
67274;SDS011;55463;52.324;5.122;2023-04-16T09:36:07;5.95;;;3.83;;
67274;SDS011;55463;52.324;5.122;2023-04-16T09:38:45;10.32;;;4.70;;
67274;SDS011;55463;52.324;5.122;2023-04-16T09:41:12;8.48;;;4.60;;
67274;SDS011;55463;52.324;5.122;2023-04-16T09:43:40;10.90;;;4.80;;
67274;SDS011;55463;52.324;5.122;2023-04-16T09:46:05;12.05;;;5.75;;
67274;SDS011;55463;52.324;5.122;2023-04-16T09:48:31;10.00;;;5.50;;
67274;SDS011;55463;52.324;5.122;2023-04-16T09:50:58;16.65;;;6.20;;
67274;SDS011;55463;52.324;5.122;2023-04-16T09:53:28;14.32;;;5.60;;
67274;SDS011;55463;52.324;5.122;2023-04-16T09:58:22;19.27;;;6.22;;
67274;SDS011;55463;52.324;5.122;2023-04-16T10:00:48;9.27;;;4.95;;
67274;SDS011;55463;52.324;5.122;2023-04-16T10:03:19;9.43;;;4.85;;
67274;SDS011;55463;52.324;5.122;2023-04-16T10:05:53;19.20;;;5.82;;
67274;SDS011;55463;52.324;5.122;2023-04-16T10:08:19;17.10;;;6.03;;
67274;SDS011;55463;52.324;5.122;2023-04-16T10:10:44;13.55;;;7.00;;
67274;SDS011;55463;52.324;5.122;2023-04-16T10:13:10;18.77;;;6.50;;
67274;SDS011;55463;52.324;5.122;2023-04-16T10:15:36;19.60;;;6.88;;
67274;SDS011;55463;52.324;5.122;2023-04-16T10:18:02;24.75;;;7.22;;
67274;SDS011;55463;52.324;5.122;2023-04-16T10:20:29;24.67;;;8.13;;
67274;SDS011;55463;52.324;5.122;2023-04-16T10:22:54;17.38;;;7.63;;
67274;SDS011;55463;52.324;5.122;2023-04-16T10:25:20;22.38;;;8.25;;
67274;SDS011;55463;52.324;5.122;2023-04-16T10:27:47;20.23;;;7.53;;
67274;SDS011;55463;52.324;5.122;2023-04-16T10:30:14;18.63;;;8.23;;
67274;SDS011;55463;52.324;5.122;2023-04-16T10:32:40;17.00;;;7.47;;
67274;SDS011;55463;52.324;5.122;2023-04-16T10:35:06;26.13;;;8.07;;
67274;SDS011;55463;52.324;5.122;2023-04-16T10:37:32;19.75;;;7.65;;
67274;SDS011;55463;52.324;5.122;2023-04-16T10:39:58;22.25;;;8.90;;
67274;SDS011;55463;52.324;5.122;2023-04-16T10:42:26;21.48;;;8.32;;
67274;SDS011;55463;52.324;5.122;2023-04-16T10:44:51;19.33;;;7.50;;
67274;SDS011;55463;52.324;5.122;2023-04-16T10:47:17;20.88;;;8.60;;
67274;SDS011;55463;52.324;5.122;2023-04-16T10:49:42;19.63;;;8.05;;
67274;SDS011;55463;52.324;5.122;2023-04-16T10:52:11;26.30;;;8.88;;
67274;SDS011;55463;52.324;5.122;2023-04-16T10:54:38;27.17;;;8.27;;
67274;SDS011;55463;52.324;5.122;2023-04-16T10:57:06;25.15;;;8.40;;
67274;SDS011;55463;52.324;5.122;2023-04-16T10:59:33;21.40;;;8.45;;
67274;SDS011;55463;52.324;5.122;2023-04-16T11:02:00;19.58;;;8.52;;
67274;SDS011;55463;52.324;5.122;2023-04-16T11:04:34;21.38;;;9.38;;
67274;SDS011;55463;52.324;5.122;2023-04-16T11:09:54;29.13;;;8.73;;
67274;SDS011;55463;52.324;5.122;2023-04-16T11:12:24;24.45;;;9.18;;
67274;SDS011;55463;52.324;5.122;2023-04-16T11:14:58;23.15;;;10.25;;
67274;SDS011;55463;52.324;5.122;2023-04-16T11:17:30;24.85;;;9.88;;
67274;SDS011;55463;52.324;5.122;2023-04-16T11:19:57;26.40;;;9.25;;
67274;SDS011;55463;52.324;5.122;2023-04-16T11:22:22;24.92;;;10.05;;
67274;SDS011;55463;52.324;5.122;2023-04-16T11:24:52;22.58;;;8.60;;
67274;SDS011;55463;52.324;5.122;2023-04-16T11:27:19;21.50;;;9.05;;
67274;SDS011;55463;52.324;5.122;2023-04-16T11:29:44;23.48;;;9.07;;
67274;SDS011;55463;52.324;5.122;2023-04-16T11:32:10;21.73;;;8.57;;
67274;SDS011;55463;52.324;5.122;2023-04-16T11:34:45;20.90;;;8.65;;
67274;SDS011;55463;52.324;5.122;2023-04-16T11:37:10;21.95;;;9.18;;
67274;SDS011;55463;52.324;5.122;2023-04-16T11:39:46;20.27;;;8.75;;
67274;SDS011;55463;52.324;5.122;2023-04-16T11:42:17;21.23;;;8.43;;
67274;SDS011;55463;52.324;5.122;2023-04-16T11:44:43;20.52;;;8.98;;
67274;SDS011;55463;52.324;5.122;2023-04-16T11:47:09;17.92;;;8.50;;
67274;SDS011;55463;52.324;5.122;2023-04-16T11:49:37;24.35;;;8.90;;
67274;SDS011;55463;52.324;5.122;2023-04-16T11:52:03;19.65;;;8.32;;
67274;SDS011;55463;52.324;5.122;2023-04-16T11:54:28;19.05;;;7.32;;
67274;SDS011;55463;52.324;5.122;2023-04-16T11:56:58;16.25;;;7.53;;
67274;SDS011;55463;52.324;5.122;2023-04-16T11:59:24;22.90;;;8.57;;
67274;SDS011;55463;52.324;5.122;2023-04-16T12:01:53;15.35;;;7.88;;
67274;SDS011;55463;52.324;5.122;2023-04-16T12:04:24;19.48;;;8.15;;
67274;SDS011;55463;52.324;5.122;2023-04-16T12:07:12;21.42;;;8.63;;
67274;SDS011;55463;52.324;5.122;2023-04-16T12:09:39;15.93;;;7.65;;
67274;SDS011;55463;52.324;5.122;2023-04-16T12:14:54;15.13;;;7.63;;
67274;SDS011;55463;52.324;5.122;2023-04-16T12:17:21;24.13;;;8.57;;
67274;SDS011;55463;52.324;5.122;2023-04-16T12:19:51;23.13;;;9.30;;
67274;SDS011;55463;52.324;5.122;2023-04-16T12:22:26;21.15;;;8.02;;
67274;SDS011;55463;52.324;5.122;2023-04-16T12:24:59;23.15;;;9.30;;
67274;SDS011;55463;52.324;5.122;2023-04-16T12:27:39;21.45;;;9.30;;
67274;SDS011;55463;52.324;5.122;2023-04-16T12:30:17;24.83;;;9.68;;
67274;SDS011;55463;52.324;5.122;2023-04-16T12:32:46;19.88;;;8.68;;
67274;SDS011;55463;52.324;5.122;2023-04-16T12:35:13;19.98;;;9.20;;
67274;SDS011;55463;52.324;5.122;2023-04-16T12:37:56;18.58;;;8.85;;
67274;SDS011;55463;52.324;5.122;2023-04-16T12:40:22;23.80;;;9.73;;
67274;SDS011;55463;52.324;5.122;2023-04-16T12:42:47;26.77;;;9.18;;
67274;SDS011;55463;52.324;5.122;2023-04-16T12:45:16;22.10;;;9.48;;
67274;SDS011;55463;52.324;5.122;2023-04-16T12:47:41;20.70;;;9.27;;
67274;SDS011;55463;52.324;5.122;2023-04-16T12:50:07;25.98;;;9.88;;
67274;SDS011;55463;52.324;5.122;2023-04-16T12:52:33;23.05;;;9.00;;
67274;SDS011;55463;52.324;5.122;2023-04-16T13:26:58;24.38;;;10.50;;
67274;SDS011;55463;52.324;5.122;2023-04-16T13:29:23;18.45;;;9.25;;
67274;SDS011;55463;52.324;5.122;2023-04-16T13:31:49;21.92;;;9.98;;
67274;SDS011;55463;52.324;5.122;2023-04-16T13:34:15;25.95;;;9.77;;
67274;SDS011;55463;52.324;5.122;2023-04-16T13:36:40;19.10;;;9.55;;
67274;SDS011;55463;52.324;5.122;2023-04-16T13:39:05;26.00;;;9.60;;
67274;SDS011;55463;52.324;5.122;2023-04-16T13:41:35;20.85;;;9.30;;
67274;SDS011;55463;52.324;5.122;2023-04-16T13:44:01;21.02;;;10.40;;
67274;SDS011;55463;52.324;5.122;2023-04-16T13:46:26;20.67;;;9.02;;
67274;SDS011;55463;52.324;5.122;2023-04-16T13:48:53;25.85;;;9.18;;
67274;SDS011;55463;52.324;5.122;2023-04-16T13:51:19;17.17;;;9.02;;
67274;SDS011;55463;52.324;5.122;2023-04-16T13:53:44;27.48;;;9.45;;
67274;SDS011;55463;52.324;5.122;2023-04-16T13:56:09;17.25;;;9.50;;
67274;SDS011;55463;52.324;5.122;2023-04-16T13:58:35;17.42;;;8.57;;
67274;SDS011;55463;52.324;5.122;2023-04-16T14:01:01;22.23;;;10.43;;
67274;SDS011;55463;52.324;5.122;2023-04-16T14:03:26;25.02;;;9.48;;
67274;SDS011;55463;52.324;5.122;2023-04-16T14:05:52;28.20;;;9.55;;
67274;SDS011;55463;52.324;5.122;2023-04-16T14:08:18;22.27;;;8.48;;
67274;SDS011;55463;52.324;5.122;2023-04-16T14:10:45;21.77;;;9.52;;
67274;SDS011;55463;52.324;5.122;2023-04-16T14:13:11;19.10;;;8.90;;
67274;SDS011;55463;52.324;5.122;2023-04-16T14:15:37;24.10;;;9.20;;
67274;SDS011;55463;52.324;5.122;2023-04-16T14:18:02;23.70;;;10.05;;
67274;SDS011;55463;52.324;5.122;2023-04-16T14:20:28;17.17;;;9.05;;
67274;SDS011;55463;52.324;5.122;2023-04-16T14:22:53;22.63;;;9.55;;
67274;SDS011;55463;52.324;5.122;2023-04-16T14:25:19;22.08;;;9.57;;
67274;SDS011;55463;52.324;5.122;2023-04-16T14:27:44;19.52;;;9.10;;
67274;SDS011;55463;52.324;5.122;2023-04-16T14:30:09;22.75;;;8.88;;
67274;SDS011;55463;52.324;5.122;2023-04-16T14:32:35;17.33;;;8.60;;
67274;SDS011;55463;52.324;5.122;2023-04-16T14:35:01;23.30;;;9.30;;
67274;SDS011;55463;52.324;5.122;2023-04-16T14:37:26;22.50;;;8.63;;
67274;SDS011;55463;52.324;5.122;2023-04-16T14:39:52;17.98;;;8.63;;
67274;SDS011;55463;52.324;5.122;2023-04-16T14:45:11;19.85;;;8.68;;
67274;SDS011;55463;52.324;5.122;2023-04-16T14:47:37;19.50;;;8.77;;
67274;SDS011;55463;52.324;5.122;2023-04-16T14:50:09;21.63;;;9.20;;
67274;SDS011;55463;52.324;5.122;2023-04-16T14:52:47;23.80;;;9.65;;
67274;SDS011;55463;52.324;5.122;2023-04-16T14:55:13;22.52;;;9.50;;
67274;SDS011;55463;52.324;5.122;2023-04-16T14:57:38;16.88;;;9.20;;
67274;SDS011;55463;52.324;5.122;2023-04-16T15:00:05;17.77;;;9.10;;
67274;SDS011;55463;52.324;5.122;2023-04-16T15:02:34;22.10;;;9.50;;
67274;SDS011;55463;52.324;5.122;2023-04-16T15:05:00;16.52;;;9.13;;
67274;SDS011;55463;52.324;5.122;2023-04-16T15:10:16;19.07;;;9.50;;
67274;SDS011;55463;52.324;5.122;2023-04-16T15:12:41;23.02;;;9.80;;
67274;SDS011;55463;52.324;5.122;2023-04-16T15:15:07;20.85;;;10.05;;